Industrial Hillside, New Jersey
Current Conditions -  °F | °C
As of 5:51 PM on Wednesday 22 Oct 2014 (Local Time) from KEWR Reporting Station
Moderate Rain Moderate Rain  
Wind Chill: 53°   Ceiling: 2200
Heat Index: 53°   Visibility: 2.5mi
Dew Point: 49°   Wind: 21mph
Humidity: 86%   Direction: 360°N
Pressure: 29.83"   Gusts: 26mph
Location:  40.6961°N, 74.2294°W
Report Text: KEWR 222151Z 36018G23KT 2 1/2SM RA BR FEW016 BKN022 OVC032 12/09 A2983 RMK AO2 PK WND 36028/2053 SFC VIS 3 RAB2055 SLP102 P0009 T01170094
Loading
Personal Weather Stations






























Interactive Weather Map
Tropical Storm Tracking
New forecast layout! Learn more

10-Day Weather Forecast

Advertisements
Track Severe Weather on mobile